sensor_id;sensor_type;location;lat;lon;timestamp;temperature;humidity
25616;DHT22;13482;48.234;13.006;2022-12-24T00:01:17;13.60;81.00
25616;DHT22;13482;48.234;13.006;2022-12-24T00:03:44;13.60;81.00
25616;DHT22;13482;48.234;13.006;2022-12-24T00:06:21;13.60;81.00
25616;DHT22;13482;48.234;13.006;2022-12-24T00:08:49;13.60;81.10
25616;DHT22;13482;48.234;13.006;2022-12-24T00:11:17;13.60;81.00
25616;DHT22;13482;48.234;13.006;2022-12-24T00:13:45;13.60;80.90
25616;DHT22;13482;48.234;13.006;2022-12-24T00:16:12;13.60;80.80
25616;DHT22;13482;48.234;13.006;2022-12-24T00:18:40;13.60;80.60
25616;DHT22;13482;48.234;13.006;2022-12-24T00:21:13;13.60;80.50
25616;DHT22;13482;48.234;13.006;2022-12-24T00:23:41;13.60;80.60
25616;DHT22;13482;48.234;13.006;2022-12-24T00:26:08;13.50;80.60
25616;DHT22;13482;48.234;13.006;2022-12-24T00:28:35;13.50;80.60
25616;DHT22;13482;48.234;13.006;2022-12-24T00:31:16;13.50;80.80
25616;DHT22;13482;48.234;13.006;2022-12-24T00:33:45;13.50;80.90
25616;DHT22;13482;48.234;13.006;2022-12-24T00:36:13;13.50;81.00
25616;DHT22;13482;48.234;13.006;2022-12-24T00:38:40;13.50;81.10
25616;DHT22;13482;48.234;13.006;2022-12-24T00:41:08;13.50;81.10
25616;DHT22;13482;48.234;13.006;2022-12-24T00:44:03;13.50;81.10
25616;DHT22;13482;48.234;13.006;2022-12-24T00:46:33;13.50;81.10
25616;DHT22;13482;48.234;13.006;2022-12-24T00:49:00;13.50;81.20
25616;DHT22;13482;48.234;13.006;2022-12-24T00:51:28;13.50;81.20
25616;DHT22;13482;48.234;13.006;2022-12-24T00:53:55;13.50;81.20
25616;DHT22;13482;48.234;13.006;2022-12-24T00:56:23;13.50;81.10
25616;DHT22;13482;48.234;13.006;2022-12-24T00:58:50;13.50;81.00
25616;DHT22;13482;48.234;13.006;2022-12-24T01:01:19;13.60;81.00
25616;DHT22;13482;48.234;13.006;2022-12-24T01:03:47;13.60;80.80
25616;DHT22;13482;48.234;13.006;2022-12-24T01:06:18;13.60;80.60
25616;DHT22;13482;48.234;13.006;2022-12-24T01:08:49;13.60;80.40
25616;DHT22;13482;48.234;13.006;2022-12-24T01:11:17;13.50;80.30
25616;DHT22;13482;48.234;13.006;2022-12-24T01:13:45;13.50;80.20
25616;DHT22;13482;48.234;13.006;2022-12-24T01:16:19;13.50;80.20
25616;DHT22;13482;48.234;13.006;2022-12-24T01:18:47;13.50;80.40
25616;DHT22;13482;48.234;13.006;2022-12-24T01:21:14;13.40;80.50
25616;DHT22;13482;48.234;13.006;2022-12-24T01:23:42;13.40;80.60
25616;DHT22;13482;48.234;13.006;2022-12-24T01:26:09;13.40;80.70
25616;DHT22;13482;48.234;13.006;2022-12-24T01:28:40;13.40;80.80
25616;DHT22;13482;48.234;13.006;2022-12-24T01:31:15;13.40;81.00
25616;DHT22;13482;48.234;13.006;2022-12-24T01:33:45;13.40;81.20
25616;DHT22;13482;48.234;13.006;2022-12-24T01:36:13;13.40;81.20
25616;DHT22;13482;48.234;13.006;2022-12-24T01:38:40;13.40;81.20
25616;DHT22;13482;48.234;13.006;2022-12-24T01:41:17;13.40;81.20
25616;DHT22;13482;48.234;13.006;2022-12-24T01:44:21;13.40;81.20
25616;DHT22;13482;48.234;13.006;2022-12-24T01:52:29;13.50;80.80
25616;DHT22;13482;48.234;13.006;2022-12-24T01:55:11;13.40;80.60
25616;DHT22;13482;48.234;13.006;2022-12-24T01:57:44;13.40;80.60
25616;DHT22;13482;48.234;13.006;2022-12-24T02:00:14;13.40;80.50
25616;DHT22;13482;48.234;13.006;2022-12-24T02:02:47;13.40;80.40
25616;DHT22;13482;48.234;13.006;2022-12-24T02:05:31;13.40;80.10
25616;DHT22;13482;48.234;13.006;2022-12-24T02:08:03;13.40;80.00
25616;DHT22;13482;48.234;13.006;2022-12-24T02:10:31;13.40;80.00
25616;DHT22;13482;48.234;13.006;2022-12-24T02:12:58;13.40;79.90
25616;DHT22;13482;48.234;13.006;2022-12-24T02:15:28;13.40;79.90
25616;DHT22;13482;48.234;13.006;2022-12-24T02:18:28;13.40;79.80
25616;DHT22;13482;48.234;13.006;2022-12-24T02:27:43;13.30;79.60
25616;DHT22;13482;48.234;13.006;2022-12-24T02:30:29;13.30;79.40
25616;DHT22;13482;48.234;13.006;2022-12-24T02:35:40;13.20;79.70
25616;DHT22;13482;48.234;13.006;2022-12-24T02:38:53;13.20;79.70
25616;DHT22;13482;48.234;13.006;2022-12-24T02:41:40;13.20;79.60
25616;DHT22;13482;48.234;13.006;2022-12-24T02:44:31;13.20;79.60
25616;DHT22;13482;48.234;13.006;2022-12-24T02:47:23;13.20;79.60
25616;DHT22;13482;48.234;13.006;2022-12-24T02:49:53;13.20;79.50
25616;DHT22;13482;48.234;13.006;2022-12-24T02:52:38;13.10;79.50
25616;DHT22;13482;48.234;13.006;2022-12-24T02:58:18;13.10;79.50
25616;DHT22;13482;48.234;13.006;2022-12-24T03:01:23;13.10;79.40
25616;DHT22;13482;48.234;13.006;2022-12-24T03:04:29;13.10;79.50
25616;DHT22;13482;48.234;13.006;2022-12-24T03:07:16;13.00;79.50
25616;DHT22;13482;48.234;13.006;2022-12-24T03:10:19;13.00;79.50
25616;DHT22;13482;48.234;13.006;2022-12-24T03:12:50;13.00;79.60
25616;DHT22;13482;48.234;13.006;2022-12-24T03:15:23;13.00;79.60
25616;DHT22;13482;48.234;13.006;2022-12-24T03:17:53;13.00;79.60
25616;DHT22;13482;48.234;13.006;2022-12-24T03:20:32;13.00;79.60
25616;DHT22;13482;48.234;13.006;2022-12-24T03:23:03;13.00;79.70
25616;DHT22;13482;48.234;13.006;2022-12-24T03:25:31;12.90;79.60
25616;DHT22;13482;48.234;13.006;2022-12-24T03:28:02;12.90;79.60
25616;DHT22;13482;48.234;13.006;2022-12-24T03:30:31;12.90;79.60
25616;DHT22;13482;48.234;13.006;2022-12-24T03:32:59;12.90;79.60
25616;DHT22;13482;48.234;13.006;2022-12-24T03:35:26;12.90;79.70
25616;DHT22;13482;48.234;13.006;2022-12-24T03:37:53;12.90;79.80
25616;DHT22;13482;48.234;13.006;2022-12-24T03:40:20;12.80;79.80
25616;DHT22;13482;48.234;13.006;2022-12-24T03:42:47;12.80;79.80
25616;DHT22;13482;48.234;13.006;2022-12-24T03:45:14;12.80;79.90
25616;DHT22;13482;48.234;13.006;2022-12-24T03:47:42;12.80;79.80
25616;DHT22;13482;48.234;13.006;2022-12-24T03:50:09;12.80;79.90
25616;DHT22;13482;48.234;13.006;2022-12-24T03:52:36;12.80;80.00
25616;DHT22;13482;48.234;13.006;2022-12-24T03:55:04;12.80;79.90
25616;DHT22;13482;48.234;13.006;2022-12-24T03:57:31;12.90;80.00
25616;DHT22;13482;48.234;13.006;2022-12-24T03:59:58;12.90;80.00
25616;DHT22;13482;48.234;13.006;2022-12-24T04:02:25;12.90;80.10
25616;DHT22;13482;48.234;13.006;2022-12-24T04:04:53;12.90;80.20
25616;DHT22;13482;48.234;13.006;2022-12-24T04:07:20;12.90;80.20
25616;DHT22;13482;48.234;13.006;2022-12-24T04:09:47;12.90;80.20
25616;DHT22;13482;48.234;13.006;2022-12-24T04:12:14;12.90;80.20
25616;DHT22;13482;48.234;13.006;2022-12-24T04:14:41;12.90;80.30
25616;DHT22;13482;48.234;13.006;2022-12-24T04:17:08;13.00;80.30
25616;DHT22;13482;48.234;13.006;2022-12-24T04:19:36;13.00;80.20
25616;DHT22;13482;48.234;13.006;2022-12-24T04:22:03;13.00;80.20
25616;DHT22;13482;48.234;13.006;2022-12-24T04:24:30;13.00;80.10
25616;DHT22;13482;48.234;13.006;2022-12-24T04:26:57;13.00;80.00
25616;DHT22;13482;48.234;13.006;2022-12-24T04:29:24;13.00;80.00
25616;DHT22;13482;48.234;13.006;2022-12-24T04:31:51;13.10;80.10
25616;DHT22;13482;48.234;13.006;2022-12-24T04:34:18;13.10;80.20
25616;DHT22;13482;48.234;13.006;2022-12-24T04:36:45;13.10;80.10
25616;DHT22;13482;48.234;13.006;2022-12-24T04:39:13;13.10;80.20
25616;DHT22;13482;48.234;13.006;2022-12-24T04:41:40;13.10;80.10
25616;DHT22;13482;48.234;13.006;2022-12-24T04:44:08;13.20;80.10
25616;DHT22;13482;48.234;13.006;2022-12-24T04:46:36;13.20;80.10
25616;DHT22;13482;48.234;13.006;2022-12-24T04:49:03;13.30;80.00
25616;DHT22;13482;48.234;13.006;2022-12-24T04:51:31;13.30;79.90
25616;DHT22;13482;48.234;13.006;2022-12-24T04:53:58;13.30;79.70
25616;DHT22;13482;48.234;13.006;2022-12-24T04:56:28;13.30;79.60
25616;DHT22;13482;48.234;13.006;2022-12-24T04:58:58;13.40;79.60
25616;DHT22;13482;48.234;13.006;2022-12-24T05:01:28;13.40;79.50
25616;DHT22;13482;48.234;13.006;2022-12-24T05:03:57;13.40;79.40
25616;DHT22;13482;48.234;13.006;2022-12-24T05:06:27;13.40;79.30
25616;DHT22;13482;48.234;13.006;2022-12-24T05:08:57;13.40;79.30
25616;DHT22;13482;48.234;13.006;2022-12-24T05:11:24;13.50;79.20
25616;DHT22;13482;48.234;13.006;2022-12-24T05:13:52;13.50;79.20
25616;DHT22;13482;48.234;13.006;2022-12-24T05:16:20;13.50;79.10
25616;DHT22;13482;48.234;13.006;2022-12-24T05:18:48;13.50;79.00
25616;DHT22;13482;48.234;13.006;2022-12-24T05:21:18;13.50;79.00
25616;DHT22;13482;48.234;13.006;2022-12-24T05:23:47;13.50;79.00
25616;DHT22;13482;48.234;13.006;2022-12-24T05:26:35;13.50;79.00
25616;DHT22;13482;48.234;13.006;2022-12-24T05:29:07;13.50;78.90
25616;DHT22;13482;48.234;13.006;2022-12-24T05:31:38;13.50;78.90
25616;DHT22;13482;48.234;13.006;2022-12-24T05:34:06;13.50;78.90
25616;DHT22;13482;48.234;13.006;2022-12-24T05:36:34;13.50;78.90
25616;DHT22;13482;48.234;13.006;2022-12-24T05:39:01;13.50;78.80
25616;DHT22;13482;48.234;13.006;2022-12-24T05:41:29;13.50;78.60
25616;DHT22;13482;48.234;13.006;2022-12-24T05:43:57;13.40;78.30
25616;DHT22;13482;48.234;13.006;2022-12-24T05:46:25;13.40;77.50
25616;DHT22;13482;48.234;13.006;2022-12-24T05:48:52;13.30;77.80
25616;DHT22;13482;48.234;13.006;2022-12-24T05:51:20;13.20;78.10
25616;DHT22;13482;48.234;13.006;2022-12-24T05:53:50;13.10;77.90
25616;DHT22;13482;48.234;13.006;2022-12-24T05:56:20;13.00;78.20
25616;DHT22;13482;48.234;13.006;2022-12-24T05:58:49;13.00;78.30
25616;DHT22;13482;48.234;13.006;2022-12-24T06:01:18;12.90;78.30
25616;DHT22;13482;48.234;13.006;2022-12-24T06:03:45;12.80;78.50
25616;DHT22;13482;48.234;13.006;2022-12-24T06:06:19;12.70;78.60
25616;DHT22;13482;48.234;13.006;2022-12-24T06:08:52;12.60;78.70
25616;DHT22;13482;48.234;13.006;2022-12-24T06:11:22;12.60;78.90
25616;DHT22;13482;48.234;13.006;2022-12-24T06:13:51;12.50;79.00
25616;DHT22;13482;48.234;13.006;2022-12-24T06:16:20;12.40;79.20
25616;DHT22;13482;48.234;13.006;2022-12-24T06:18:49;12.40;79.30
25616;DHT22;13482;48.234;13.006;2022-12-24T06:21:17;12.30;79.50
25616;DHT22;13482;48.234;13.006;2022-12-24T06:23:44;12.30;79.50
25616;DHT22;13482;48.234;13.006;2022-12-24T06:26:17;12.30;79.60
25616;DHT22;13482;48.234;13.006;2022-12-24T06:28:46;12.30;79.70
25616;DHT22;13482;48.234;13.006;2022-12-24T06:31:18;12.20;79.70
25616;DHT22;13482;48.234;13.006;2022-12-24T06:33:46;12.20;79.70
25616;DHT22;13482;48.234;13.006;2022-12-24T06:36:18;12.20;80.00
25616;DHT22;13482;48.234;13.006;2022-12-24T06:38:47;12.30;79.60
25616;DHT22;13482;48.234;13.006;2022-12-24T06:41:16;12.20;79.60
25616;DHT22;13482;48.234;13.006;2022-12-24T06:43:49;12.20;79.60
25616;DHT22;13482;48.234;13.006;2022-12-24T06:46:18;12.20;79.70
25616;DHT22;13482;48.234;13.006;2022-12-24T06:48:46;12.20;79.70
25616;DHT22;13482;48.234;13.006;2022-12-24T06:51:15;12.20;79.70
25616;DHT22;13482;48.234;13.006;2022-12-24T06:53:45;12.20;79.70
25616;DHT22;13482;48.234;13.006;2022-12-24T06:56:13;12.30;79.80
25616;DHT22;13482;48.234;13.006;2022-12-24T06:58:40;12.30;79.50
25616;DHT22;13482;48.234;13.006;2022-12-24T07:01:10;12.20;79.50
25616;DHT22;13482;48.234;13.006;2022-12-24T07:03:44;12.20;79.60
25616;DHT22;13482;48.234;13.006;2022-12-24T07:06:20;12.20;79.60
25616;DHT22;13482;48.234;13.006;2022-12-24T07:08:50;12.20;79.70
25616;DHT22;13482;48.234;13.006;2022-12-24T07:11:18;12.20;79.80
25616;DHT22;13482;48.234;13.006;2022-12-24T07:13:45;12.10;79.80
25616;DHT22;13482;48.234;13.006;2022-12-24T07:16:13;12.10;79.70
25616;DHT22;13482;48.234;13.006;2022-12-24T07:18:40;12.10;79.60
25616;DHT22;13482;48.234;13.006;2022-12-24T07:21:08;12.10;79.60
25616;DHT22;13482;48.234;13.006;2022-12-24T07:23:35;12.10;79.70
25616;DHT22;13482;48.234;13.006;2022-12-24T07:26:05;12.10;79.70
25616;DHT22;13482;48.234;13.006;2022-12-24T07:28:33;12.10;79.80
25616;DHT22;13482;48.234;13.006;2022-12-24T07:31:00;12.10;79.80
25616;DHT22;13482;48.234;13.006;2022-12-24T07:33:28;12.10;79.80
25616;DHT22;13482;48.234;13.006;2022-12-24T07:36:04;12.00;79.80
25616;DHT22;13482;48.234;13.006;2022-12-24T07:38:33;12.10;79.70
25616;DHT22;13482;48.234;13.006;2022-12-24T07:41:01;12.00;79.70
25616;DHT22;13482;48.234;13.006;2022-12-24T07:43:28;12.00;79.70
25616;DHT22;13482;48.234;13.006;2022-12-24T07:45:56;12.00;79.70
25616;DHT22;13482;48.234;13.006;2022-12-24T07:48:28;12.00;79.70
25616;DHT22;13482;48.234;13.006;2022-12-24T07:50:56;12.10;79.70
25616;DHT22;13482;48.234;13.006;2022-12-24T07:53:25;12.00;79.70
25616;DHT22;13482;48.234;13.006;2022-12-24T07:55:53;12.10;79.70
25616;DHT22;13482;48.234;13.006;2022-12-24T07:58:21;12.10;79.70
25616;DHT22;13482;48.234;13.006;2022-12-24T08:00:48;12.10;79.70
25616;DHT22;13482;48.234;13.006;2022-12-24T08:03:21;12.10;79.70
25616;DHT22;13482;48.234;13.006;2022-12-24T08:05:48;12.10;79.70
25616;DHT22;13482;48.234;13.006;2022-12-24T08:08:15;12.10;79.60
25616;DHT22;13482;48.234;13.006;2022-12-24T08:10:44;12.10;79.60
25616;DHT22;13482;48.234;13.006;2022-12-24T08:13:13;12.10;79.50
25616;DHT22;13482;48.234;13.006;2022-12-24T08:15:41;12.10;79.50
25616;DHT22;13482;48.234;13.006;2022-12-24T08:18:09;12.10;79.50
25616;DHT22;13482;48.234;13.006;2022-12-24T08:20:40;12.10;79.50
25616;DHT22;13482;48.234;13.006;2022-12-24T08:23:08;12.10;79.60
25616;DHT22;13482;48.234;13.006;2022-12-24T08:25:35;12.10;79.60
25616;DHT22;13482;48.234;13.006;2022-12-24T08:28:04;12.10;79.70
25616;DHT22;13482;48.234;13.006;2022-12-24T08:30:31;12.10;79.70
25616;DHT22;13482;48.234;13.006;2022-12-24T08:32:59;12.20;79.60
25616;DHT22;13482;48.234;13.006;2022-12-24T08:35:26;12.20;79.40
25616;DHT22;13482;48.234;13.006;2022-12-24T08:37:53;12.20;79.60
25616;DHT22;13482;48.234;13.006;2022-12-24T08:40:20;12.20;79.70
25616;DHT22;13482;48.234;13.006;2022-12-24T08:42:48;12.20;79.70
25616;DHT22;13482;48.234;13.006;2022-12-24T08:45:15;12.20;79.90
25616;DHT22;13482;48.234;13.006;2022-12-24T08:47:42;12.20;80.00
25616;DHT22;13482;48.234;13.006;2022-12-24T08:50:10;12.30;80.00
25616;DHT22;13482;48.234;13.006;2022-12-24T08:52:37;12.30;80.00
25616;DHT22;13482;48.234;13.006;2022-12-24T08:55:05;12.30;80.00
25616;DHT22;13482;48.234;13.006;2022-12-24T08:57:35;12.30;80.10
25616;DHT22;13482;48.234;13.006;2022-12-24T09:00:05;12.40;80.10
25616;DHT22;13482;48.234;13.006;2022-12-24T09:02:33;12.40;80.20
25616;DHT22;13482;48.234;13.006;2022-12-24T09:05:01;12.40;80.20
25616;DHT22;13482;48.234;13.006;2022-12-24T09:07:28;12.50;80.20
25616;DHT22;13482;48.234;13.006;2022-12-24T09:09:55;12.50;80.10
25616;DHT22;13482;48.234;13.006;2022-12-24T09:12:22;12.60;80.10
25616;DHT22;13482;48.234;13.006;2022-12-24T09:14:50;12.60;80.10
25616;DHT22;13482;48.234;13.006;2022-12-24T09:17:17;12.60;80.10
25616;DHT22;13482;48.234;13.006;2022-12-24T09:19:45;12.60;80.10
25616;DHT22;13482;48.234;13.006;2022-12-24T09:22:13;12.70;80.10
25616;DHT22;13482;48.234;13.006;2022-12-24T09:24:40;12.70;80.20
25616;DHT22;13482;48.234;13.006;2022-12-24T09:27:07;12.70;80.20
25616;DHT22;13482;48.234;13.006;2022-12-24T09:29:34;12.70;80.20
25616;DHT22;13482;48.234;13.006;2022-12-24T09:32:02;12.70;80.20
25616;DHT22;13482;48.234;13.006;2022-12-24T09:34:30;12.80;80.30
25616;DHT22;13482;48.234;13.006;2022-12-24T09:36:57;12.80;80.20
25616;DHT22;13482;48.234;13.006;2022-12-24T09:39:25;12.80;80.30
25616;DHT22;13482;48.234;13.006;2022-12-24T09:45:23;12.90;80.40
25616;DHT22;13482;48.234;13.006;2022-12-24T09:48:02;13.00;80.30
25616;DHT22;13482;48.234;13.006;2022-12-24T09:51:08;13.00;80.20
25616;DHT22;13482;48.234;13.006;2022-12-24T09:53:50;13.10;80.00
25616;DHT22;13482;48.234;13.006;2022-12-24T09:56:47;13.10;79.80
25616;DHT22;13482;48.234;13.006;2022-12-24T09:59:24;13.10;79.60
25616;DHT22;13482;48.234;13.006;2022-12-24T10:01:54;13.10;79.70
25616;DHT22;13482;48.234;13.006;2022-12-24T10:04:28;13.10;79.50
25616;DHT22;13482;48.234;13.006;2022-12-24T10:07:17;13.10;79.40
25616;DHT22;13482;48.234;13.006;2022-12-24T10:10:39;13.10;79.40
25616;DHT22;13482;48.234;13.006;2022-12-24T10:16:31;13.00;79.30
25616;DHT22;13482;48.234;13.006;2022-12-24T10:19:35;13.00;78.80
25616;DHT22;13482;48.234;13.006;2022-12-24T10:22:35;13.00;79.10
25616;DHT22;13482;48.234;13.006;2022-12-24T10:25:32;13.00;78.60
25616;DHT22;13482;48.234;13.006;2022-12-24T10:28:11;13.00;78.20
25616;DHT22;13482;48.234;13.006;2022-12-24T10:30:41;13.00;77.00
25616;DHT22;13482;48.234;13.006;2022-12-24T10:33:36;13.00;78.20
25616;DHT22;13482;48.234;13.006;2022-12-24T10:36:16;13.00;78.30
25616;DHT22;13482;48.234;13.006;2022-12-24T10:38:45;13.00;78.50
25616;DHT22;13482;48.234;13.006;2022-12-24T10:41:14;13.00;78.40
25616;DHT22;13482;48.234;13.006;2022-12-24T10:43:43;13.00;78.40
25616;DHT22;13482;48.234;13.006;2022-12-24T10:51:56;13.10;77.60
25616;DHT22;13482;48.234;13.006;2022-12-24T10:54:30;13.10;78.50
25616;DHT22;13482;48.234;13.006;2022-12-24T10:57:22;13.20;78.60
25616;DHT22;13482;48.234;13.006;2022-12-24T10:59:54;13.30;78.40
25616;DHT22;13482;48.234;13.006;2022-12-24T11:02:26;13.30;78.80
25616;DHT22;13482;48.234;13.006;2022-12-24T11:08:02;13.40;78.00
25616;DHT22;13482;48.234;13.006;2022-12-24T11:10:34;13.50;78.20
25616;DHT22;13482;48.234;13.006;2022-12-24T11:13:02;13.50;78.20
25616;DHT22;13482;48.234;13.006;2022-12-24T11:16:03;13.50;78.10
25616;DHT22;13482;48.234;13.006;2022-12-24T11:18:36;13.50;77.80
25616;DHT22;13482;48.234;13.006;2022-12-24T11:21:05;13.60;78.10
25616;DHT22;13482;48.234;13.006;2022-12-24T11:23:32;13.60;78.30
25616;DHT22;13482;48.234;13.006;2022-12-24T11:26:00;13.60;78.20
25616;DHT22;13482;48.234;13.006;2022-12-24T11:28:31;13.70;78.20
25616;DHT22;13482;48.234;13.006;2022-12-24T11:31:17;13.70;78.30
25616;DHT22;13482;48.234;13.006;2022-12-24T11:33:50;13.80;78.10
25616;DHT22;13482;48.234;13.006;2022-12-24T11:36:22;13.90;77.90
25616;DHT22;13482;48.234;13.006;2022-12-24T11:38:57;14.00;77.90
25616;DHT22;13482;48.234;13.006;2022-12-24T11:41:25;14.10;77.40
25616;DHT22;13482;48.234;13.006;2022-12-24T11:44:02;14.10;77.80
25616;DHT22;13482;48.234;13.006;2022-12-24T11:46:39;14.20;76.80
25616;DHT22;13482;48.234;13.006;2022-12-24T11:51:39;14.40;76.80
25616;DHT22;13482;48.234;13.006;2022-12-24T11:57:31;14.60;76.80
25616;DHT22;13482;48.234;13.006;2022-12-24T12:00:09;14.70;76.50
25616;DHT22;13482;48.234;13.006;2022-12-24T12:02:38;14.70;75.30
25616;DHT22;13482;48.234;13.006;2022-12-24T12:05:21;14.80;75.90
25616;DHT22;13482;48.234;13.006;2022-12-24T12:07:54;14.80;74.80
25616;DHT22;13482;48.234;13.006;2022-12-24T12:10:30;14.90;74.80
25616;DHT22;13482;48.234;13.006;2022-12-24T12:13:04;14.90;74.50
25616;DHT22;13482;48.234;13.006;2022-12-24T12:16:04;15.00;74.20
25616;DHT22;13482;48.234;13.006;2022-12-24T12:18:41;15.00;72.30
25616;DHT22;13482;48.234;13.006;2022-12-24T12:21:18;14.90;72.20
25616;DHT22;13482;48.234;13.006;2022-12-24T12:23:48;14.90;70.80
25616;DHT22;13482;48.234;13.006;2022-12-24T12:26:22;14.90;71.60
25616;DHT22;13482;48.234;13.006;2022-12-24T12:31:44;14.90;72.00
25616;DHT22;13482;48.234;13.006;2022-12-24T12:34:30;14.90;71.40
25616;DHT22;13482;48.234;13.006;2022-12-24T12:37:04;14.80;70.70
25616;DHT22;13482;48.234;13.006;2022-12-24T12:39:40;14.80;71.80
25616;DHT22;13482;48.234;13.006;2022-12-24T12:45:08;14.80;71.40
25616;DHT22;13482;48.234;13.006;2022-12-24T12:50:57;14.70;70.60
25616;DHT22;13482;48.234;13.006;2022-12-24T12:56:47;14.70;71.30
25616;DHT22;13482;48.234;13.006;2022-12-24T12:59:29;14.70;72.10
25616;DHT22;13482;48.234;13.006;2022-12-24T13:21:48;14.70;71.10
25616;DHT22;13482;48.234;13.006;2022-12-24T13:24:22;14.70;71.40
25616;DHT22;13482;48.234;13.006;2022-12-24T13:35:01;14.60;70.80
25616;DHT22;13482;48.234;13.006;2022-12-24T13:47:57;14.40;71.20
25616;DHT22;13482;48.234;13.006;2022-12-24T13:50:42;14.40;71.20
25616;DHT22;13482;48.234;13.006;2022-12-24T13:53:31;14.40;71.20
25616;DHT22;13482;48.234;13.006;2022-12-24T13:58:47;14.40;71.50
25616;DHT22;13482;48.234;13.006;2022-12-24T14:01:19;14.40;71.50
25616;DHT22;13482;48.234;13.006;2022-12-24T14:03:54;14.40;71.60
25616;DHT22;13482;48.234;13.006;2022-12-24T14:06:33;14.40;71.70
25616;DHT22;13482;48.234;13.006;2022-12-24T14:09:14;14.40;70.80
25616;DHT22;13482;48.234;13.006;2022-12-24T14:14:29;14.40;70.70
25616;DHT22;13482;48.234;13.006;2022-12-24T14:17:00;14.40;71.00
25616;DHT22;13482;48.234;13.006;2022-12-24T14:19:40;14.40;71.50
25616;DHT22;13482;48.234;13.006;2022-12-24T14:22:29;14.40;71.20
25616;DHT22;13482;48.234;13.006;2022-12-24T14:25:08;14.40;70.60
25616;DHT22;13482;48.234;13.006;2022-12-24T14:28:05;14.50;71.40
25616;DHT22;13482;48.234;13.006;2022-12-24T14:30:33;14.50;70.00
25616;DHT22;13482;48.234;13.006;2022-12-24T14:33:00;14.40;71.10
25616;DHT22;13482;48.234;13.006;2022-12-24T14:35:28;14.40;70.60
25616;DHT22;13482;48.234;13.006;2022-12-24T14:38:00;14.50;70.90
25616;DHT22;13482;48.234;13.006;2022-12-24T14:40:31;14.50;70.80
25616;DHT22;13482;48.234;13.006;2022-12-24T14:43:03;14.50;70.70
25616;DHT22;13482;48.234;13.006;2022-12-24T14:45:47;14.50;70.90
25616;DHT22;13482;48.234;13.006;2022-12-24T14:56:46;14.40;70.00
25616;DHT22;13482;48.234;13.006;2022-12-24T14:59:15;14.40;71.00
25616;DHT22;13482;48.234;13.006;2022-12-24T15:01:44;14.40;70.40
25616;DHT22;13482;48.234;13.006;2022-12-24T15:06:49;14.30;70.60
25616;DHT22;13482;48.234;13.006;2022-12-24T15:09:24;14.30;70.80
25616;DHT22;13482;48.234;13.006;2022-12-24T15:11:57;14.20;70.40
25616;DHT22;13482;48.234;13.006;2022-12-24T15:14:28;14.20;70.60
25616;DHT22;13482;48.234;13.006;2022-12-24T15:16:59;14.20;70.70
25616;DHT22;13482;48.234;13.006;2022-12-24T15:19:34;14.20;70.80
25616;DHT22;13482;48.234;13.006;2022-12-24T15:22:08;14.10;70.70
25616;DHT22;13482;48.234;13.006;2022-12-24T15:24:48;14.10;70.70
25616;DHT22;13482;48.234;13.006;2022-12-24T15:27:23;14.00;70.50
25616;DHT22;13482;48.234;13.006;2022-12-24T15:29:55;14.00;70.40
25616;DHT22;13482;48.234;13.006;2022-12-24T15:32:23;13.90;70.60
25616;DHT22;13482;48.234;13.006;2022-12-24T15:34:54;13.90;70.60
25616;DHT22;13482;48.234;13.006;2022-12-24T15:37:26;13.80;70.60
25616;DHT22;13482;48.234;13.006;2022-12-24T15:42:40;13.70;70.60
25616;DHT22;13482;48.234;13.006;2022-12-24T15:45:20;13.70;70.70
25616;DHT22;13482;48.234;13.006;2022-12-24T15:48:05;13.60;70.70
25616;DHT22;13482;48.234;13.006;2022-12-24T15:50:37;13.60;70.70
25616;DHT22;13482;48.234;13.006;2022-12-24T15:53:14;13.50;70.80
25616;DHT22;13482;48.234;13.006;2022-12-24T15:56:29;13.40;70.80
25616;DHT22;13482;48.234;13.006;2022-12-24T15:59:26;13.30;70.40
25616;DHT22;13482;48.234;13.006;2022-12-24T16:08:04;13.10;70.70
25616;DHT22;13482;48.234;13.006;2022-12-24T16:14:16;12.90;71.00
25616;DHT22;13482;48.234;13.006;2022-12-24T16:16:47;12.80;71.20
25616;DHT22;13482;48.234;13.006;2022-12-24T16:19:21;12.70;71.20
25616;DHT22;13482;48.234;13.006;2022-12-24T16:22:02;12.60;71.20
25616;DHT22;13482;48.234;13.006;2022-12-24T16:24:47;12.60;71.20
25616;DHT22;13482;48.234;13.006;2022-12-24T16:27:14;12.50;71.10
25616;DHT22;13482;48.234;13.006;2022-12-24T16:29:41;12.40;71.10
25616;DHT22;13482;48.234;13.006;2022-12-24T16:32:31;12.30;71.30
25616;DHT22;13482;48.234;13.006;2022-12-24T16:35:01;12.20;71.10
25616;DHT22;13482;48.234;13.006;2022-12-24T16:37:30;12.10;71.50
25616;DHT22;13482;48.234;13.006;2022-12-24T16:39:59;12.00;71.60
25616;DHT22;13482;48.234;13.006;2022-12-24T16:42:26;12.00;71.70
25616;DHT22;13482;48.234;13.006;2022-12-24T16:45:12;11.90;71.90
25616;DHT22;13482;48.234;13.006;2022-12-24T16:47:39;11.80;72.00
25616;DHT22;13482;48.234;13.006;2022-12-24T16:50:14;11.70;72.20
25616;DHT22;13482;48.234;13.006;2022-12-24T16:52:42;11.70;72.50
25616;DHT22;13482;48.234;13.006;2022-12-24T16:55:12;11.60;72.60
25616;DHT22;13482;48.234;13.006;2022-12-24T16:57:41;11.60;72.70
25616;DHT22;13482;48.234;13.006;2022-12-24T17:00:17;11.50;72.90
25616;DHT22;13482;48.234;13.006;2022-12-24T17:02:47;11.50;73.00
25616;DHT22;13482;48.234;13.006;2022-12-24T17:05:15;11.50;73.10
25616;DHT22;13482;48.234;13.006;2022-12-24T17:07:43;11.50;73.00
25616;DHT22;13482;48.234;13.006;2022-12-24T17:10:11;11.50;72.90
25616;DHT22;13482;48.234;13.006;2022-12-24T17:12:40;11.50;72.90
25616;DHT22;13482;48.234;13.006;2022-12-24T17:15:08;11.40;72.90
25616;DHT22;13482;48.234;13.006;2022-12-24T17:17:36;11.40;72.90
25616;DHT22;13482;48.234;13.006;2022-12-24T17:20:03;11.40;72.90
25616;DHT22;13482;48.234;13.006;2022-12-24T17:22:31;11.30;72.90
25616;DHT22;13482;48.234;13.006;2022-12-24T17:24:58;11.30;73.00
25616;DHT22;13482;48.234;13.006;2022-12-24T17:27:25;11.30;73.00
25616;DHT22;13482;48.234;13.006;2022-12-24T17:29:52;11.30;73.10
25616;DHT22;13482;48.234;13.006;2022-12-24T17:32:20;11.20;73.10
25616;DHT22;13482;48.234;13.006;2022-12-24T17:34:47;11.20;73.20
25616;DHT22;13482;48.234;13.006;2022-12-24T17:37:14;11.10;73.20
25616;DHT22;13482;48.234;13.006;2022-12-24T17:39:41;11.10;73.30
25616;DHT22;13482;48.234;13.006;2022-12-24T17:42:08;11.10;73.40
25616;DHT22;13482;48.234;13.006;2022-12-24T17:44:35;11.00;73.50
25616;DHT22;13482;48.234;13.006;2022-12-24T17:47:03;11.00;73.50